Time;durP1;ratioP1;P1;durP2;ratioP2;P2;SDS_P1;SDS_P2;PMS_P1;PMS_P2;Temp;Humidity;BMP_temperature;BMP_pressure;BME280_temperature;BME280_humidity;BME280_pressure;Samples;Min_cycle;Max_cycle;Signal;HPM_P1;HPM_P2
2022/09/08 00:00:22;;;;;;;12.90;8.40;;;;;;;14.10;55.42;98736.23;88694;1276;24270;-75
2022/09/08 00:02:37;;;;;;;16.00;9.30;;;;;;;14.07;55.33;98733.09;88773;1274;25883;-75
2022/09/08 00:04:40;;;;;;;18.10;8.40;;;;;;;14.05;55.37;98733.73;88978;1276;100324;-74
2022/09/08 00:06:46;;;;;;;24.80;9.20;;;;;;;14.04;55.35;98735.77;88612;1274;22584;-77
2022/09/08 00:08:51;;;;;;;22.10;9.20;;;;;;;14.02;55.53;98737.63;88612;1276;24253;-74
2022/09/08 00:10:58;;;;;;;12.70;8.90;;;;;;;14.04;55.43;98747.41;88705;1274;99140;-74
2022/09/08 00:13:00;;;;;;;17.30;8.90;;;;;;;14.04;55.61;98752.17;88600;1276;23017;-75
2022/09/08 00:15:03;;;;;;;20.10;9.10;;;;;;;14.00;55.46;98748.73;88517;1276;99139;-75
2022/09/08 00:17:06;;;;;;;14.00;8.90;;;;;;;14.05;55.62;98756.05;88755;1274;22674;-75
2022/09/08 00:19:10;;;;;;;20.20;8.50;;;;;;;14.06;55.55;98753.10;88659;1276;22571;-73
2022/09/08 00:21:12;;;;;;;15.30;8.60;;;;;;;14.07;55.49;98748.60;88583;1274;99572;-75
2022/09/08 00:23:14;;;;;;;22.80;8.90;;;;;;;14.09;55.69;98748.66;88636;1278;22706;-75
2022/09/08 00:25:17;;;;;;;16.70;9.00;;;;;;;14.09;55.41;98740.35;88868;1276;22595;-75
2022/09/08 00:27:19;;;;;;;19.30;8.80;;;;;;;14.08;55.57;98739.02;88523;1276;98303;-77
2022/09/08 00:29:21;;;;;;;18.20;9.20;;;;;;;14.07;55.86;98741.23;88749;1275;25386;-74
2022/09/08 00:31:25;;;;;;;17.50;9.10;;;;;;;14.08;56.06;98743.64;88677;1276;22650;-75
2022/09/08 00:33:29;;;;;;;17.90;9.20;;;;;;;14.09;55.85;98746.73;88751;1273;99083;-75
2022/09/08 00:35:31;;;;;;;14.80;8.60;;;;;;;14.10;55.89;98747.38;88683;1274;22702;-75
2022/09/08 00:37:35;;;;;;;26.50;10.00;;;;;;;14.10;55.95;98746.13;88816;1276;22631;-76
2022/09/08 00:39:38;;;;;;;30.90;9.80;;;;;;;14.12;55.88;98738.42;88690;1274;99127;-75
2022/09/08 00:41:40;;;;;;;17.70;9.10;;;;;;;14.13;55.61;98732.35;88760;1274;22827;-76
2022/09/08 00:43:45;;;;;;;17.10;8.90;;;;;;;14.13;55.87;98731.98;88770;1276;22547;-75
2022/09/08 00:45:49;;;;;;;15.60;9.20;;;;;;;14.13;55.93;98731.98;89141;1276;98826;-76
2022/09/08 00:48:01;;;;;;;14.20;8.50;;;;;;;14.13;56.07;98729.52;88802;1273;26520;-75
2022/09/08 00:50:23;;;;;;;22.00;9.60;;;;;;;14.09;56.28;98728.52;88871;1275;25252;-76
2022/09/08 00:52:28;;;;;;;12.00;8.40;;;;;;;14.08;56.39;98724.52;88824;1275;100482;-74
2022/09/08 00:54:32;;;;;;;14.20;8.80;;;;;;;14.02;56.30;98718.75;88724;1277;22573;-74
2022/09/08 00:56:37;;;;;;;31.70;9.60;;;;;;;14.01;56.54;98725.39;88851;1276;22615;-74
2022/09/08 00:58:42;;;;;;;20.40;9.00;;;;;;;14.00;56.49;98725.47;88778;1274;99013;-75
2022/09/08 01:00:45;;;;;;;16.60;9.60;;;;;;;13.98;56.41;98726.29;89073;1276;25922;-75
2022/09/08 01:02:47;;;;;;;12.60;8.90;;;;;;;13.99;56.75;98734.86;88821;1276;22585;-77
2022/09/08 01:04:55;;;;;;;20.10;9.60;;;;;;;13.99;56.81;98729.77;88868;1276;98542;-75
2022/09/08 01:14:44;;;;;;;13.20;8.40;;;;;;;13.82;56.91;98735.25;88772;1274;22583;-74
2022/09/08 01:16:48;;;;;;;20.40;8.90;;;;;;;13.78;56.94;98734.83;88794;1275;98797;-76
2022/09/08 01:18:57;;;;;;;22.20;9.10;;;;;;;13.73;57.23;98728.41;88783;1276;23508;-75
2022/09/08 01:21:29;;;;;;;18.40;9.30;;;;;;;13.70;57.14;98726.52;88777;1276;23416;-75
2022/09/08 01:23:54;;;;;;;18.10;9.30;;;;;;;13.68;57.21;98728.73;88815;1273;22609;-74
2022/09/08 01:26:29;;;;;;;15.00;9.30;;;;;;;13.66;57.42;98729.05;88704;1276;24218;-75
2022/09/08 01:28:46;;;;;;;15.20;9.20;;;;;;;13.64;57.48;98728.86;88739;1275;97855;-75
2022/09/08 01:30:50;;;;;;;15.50;8.20;;;;;;;13.62;57.75;98720.64;88904;1274;22678;-76
2022/09/08 01:32:53;;;;;;;21.20;9.90;;;;;;;13.61;57.76;98721.42;89058;1276;25410;-76
2022/09/08 01:34:55;;;;;;;22.30;10.30;;;;;;;13.60;57.82;98717.28;88659;1274;98951;-74
2022/09/08 01:36:59;;;;;;;20.80;9.40;;;;;;;13.57;57.84;98721.33;88572;1277;22575;-74
2022/09/08 01:39:01;;;;;;;24.70;9.90;;;;;;;13.55;57.76;98723.96;88473;1276;98963;-77
2022/09/08 01:41:04;;;;;;;16.80;9.40;;;;;;;13.53;57.72;98721.95;89260;1274;22604;-75
2022/09/08 01:43:08;;;;;;;21.40;9.60;;;;;;;13.51;57.85;98719.97;88720;1274;22563;-74
2022/09/08 01:45:10;;;;;;;20.20;9.00;;;;;;;13.48;57.51;98719.29;88488;1276;99660;-74
2022/09/08 01:47:16;;;;;;;15.50;10.00;;;;;;;13.44;57.82;98719.84;88723;1273;25246;-74
2022/09/08 01:49:18;;;;;;;23.00;10.50;;;;;;;13.42;57.94;98718.41;88978;1273;25512;-74
2022/09/08 01:51:20;;;;;;;18.90;9.80;;;;;;;13.41;58.07;98716.89;88751;1274;99353;-75
2022/09/08 01:53:21;;;;;;;13.70;9.40;;;;;;;13.40;58.13;98715.69;88748;1276;22559;-73
2022/09/08 01:55:23;;;;;;;17.40;10.00;;;;;;;13.38;58.12;98716.53;88744;1276;23993;-75
2022/09/08 01:57:28;;;;;;;26.70;9.60;;;;;;;13.36;58.23;98718.98;88571;1276;98898;-75
2022/09/08 01:59:29;;;;;;;21.00;9.70;;;;;;;13.33;58.28;98717.33;88860;1273;22750;-75
2022/09/08 02:01:31;;;;;;;17.00;9.60;;;;;;;13.30;58.34;98718.76;88884;1273;22639;-75
2022/09/08 02:03:35;;;;;;;22.30;8.70;;;;;;;13.27;58.10;98720.20;88996;1276;99010;-74
2022/09/08 02:05:42;;;;;;;19.30;9.70;;;;;;;13.21;58.14;98719.35;88668;1275;25430;-75
2022/09/08 02:07:44;;;;;;;17.30;8.40;;;;;;;13.14;58.18;98714.14;88849;1276;22661;-76
2022/09/08 02:09:48;;;;;;;15.30;8.80;;;;;;;13.10;58.46;98715.46;88750;1276;98877;-74
2022/09/08 02:11:51;;;;;;;22.50;9.60;;;;;;;13.06;58.43;98714.62;88703;1278;22823;-74
2022/09/08 02:13:53;;;;;;;21.30;9.90;;;;;;;13.06;58.54;98720.48;87332;1276;1962162;-74
2022/09/08 02:16:03;;;;;;;20.10;9.50;;;;;;;13.06;58.58;98719.90;88426;1276;99295;-74
2022/09/08 02:18:05;;;;;;;18.30;9.50;;;;;;;13.06;58.67;98714.98;88655;1273;22573;-75
2022/09/08 02:20:08;;;;;;;18.70;9.10;;;;;;;13.04;58.66;98708.95;88656;1273;22647;-74
2022/09/08 02:22:10;;;;;;;17.40;9.50;;;;;;;13.00;58.77;98704.77;88643;1276;99136;-74
2022/09/08 02:24:15;;;;;;;18.60;9.90;;;;;;;12.96;58.78;98699.89;88672;1273;22610;-74
2022/09/08 02:26:21;;;;;;;21.40;9.90;;;;;;;12.92;58.93;98696.83;88567;1276;22616;-75
2022/09/08 02:28:23;;;;;;;28.40;9.60;;;;;;;12.88;58.96;98695.15;88536;1276;97892;-73
2022/09/08 02:30:25;;;;;;;17.70;9.40;;;;;;;12.82;59.12;98690.59;88728;1273;22604;-75
2022/09/08 02:32:28;;;;;;;20.20;9.70;;;;;;;12.78;59.08;98693.11;88742;1274;22509;-74
2022/09/08 02:34:32;;;;;;;18.00;9.70;;;;;;;12.75;59.15;98691.66;88734;1273;99566;-74
2022/09/08 02:36:35;;;;;;;17.60;9.90;;;;;;;12.74;59.28;98688.21;88731;1273;22573;-72
2022/09/08 02:38:38;;;;;;;19.90;8.80;;;;;;;12.72;59.17;98688.52;88769;1275;22505;-75
2022/09/08 02:40:45;;;;;;;14.80;8.90;;;;;;;12.70;59.25;98684.77;88538;1274;98976;-75
2022/09/08 02:42:47;;;;;;;20.00;9.40;;;;;;;12.67;59.29;98686.36;88979;1273;23977;-74
2022/09/08 02:44:50;;;;;;;15.40;9.70;;;;;;;12.66;59.39;98688.34;89132;1276;25429;-74
2022/09/08 02:46:51;;;;;;;26.80;9.70;;;;;;;12.67;59.40;98686.73;88469;1275;97896;-73
2022/09/08 02:48:54;;;;;;;15.70;8.80;;;;;;;12.66;59.50;98687.85;88762;1276;25218;-75
2022/09/08 02:50:59;;;;;;;15.10;9.70;;;;;;;12.66;59.60;98689.23;88847;1273;22717;-75
2022/09/08 02:53:01;;;;;;;21.90;9.90;;;;;;;12.66;59.68;98687.48;88633;1277;97826;-75
2022/09/08 02:55:03;;;;;;;17.40;9.50;;;;;;;12.65;59.64;98688.09;88651;1276;24545;-75
2022/09/08 02:57:05;;;;;;;20.20;10.10;;;;;;;12.63;59.62;98685.55;88691;1273;99068;-75
2022/09/08 02:59:09;;;;;;;20.00;9.70;;;;;;;12.60;59.61;98685.39;88626;1276;26877;-74
2022/09/08 03:01:11;;;;;;;18.30;9.70;;;;;;;12.56;59.67;98685.09;88734;1276;22604;-75
2022/09/08 03:03:14;;;;;;;33.80;9.90;;;;;;;12.53;59.77;98688.47;88560;1274;99437;-74
2022/09/08 03:05:16;;;;;;;18.40;10.30;;;;;;;12.43;59.69;98675.84;88600;1276;22547;-73
2022/09/08 03:07:19;;;;;;;15.80;9.60;;;;;;;12.47;59.97;98680.19;88772;1275;22975;-74
2022/09/08 03:09:25;;;;;;;19.20;10.00;;;;;;;12.44;59.92;98674.70;88654;1274;98996;-75
2022/09/08 03:11:30;;;;;;;16.10;8.20;;;;;;;12.42;59.95;98671.66;88514;1276;24249;-74
2022/09/08 03:13:32;;;;;;;16.10;10.40;;;;;;;12.39;59.96;98666.17;88690;1278;22735;-75
2022/09/08 03:15:38;;;;;;;22.00;10.00;;;;;;;12.37;60.11;98666.67;88384;1279;99936;-76
2022/09/08 03:17:41;;;;;;;22.60;9.60;;;;;;;12.35;60.26;98661.36;88636;1276;24412;-77
2022/09/08 03:19:44;;;;;;;19.50;10.20;;;;;;;12.32;60.38;98660.84;88602;1276;22588;-73
2022/09/08 03:21:48;;;;;;;27.50;10.10;;;;;;;12.27;60.34;98662.17;88600;1276;99432;-75
2022/09/08 03:23:50;;;;;;;16.50;9.60;;;;;;;12.22;60.41;98661.57;88856;1276;25422;-76
2022/09/08 03:25:53;;;;;;;18.60;9.80;;;;;;;12.17;60.49;98661.04;88613;1276;22496;-74
2022/09/08 03:27:55;;;;;;;18.60;10.00;;;;;;;12.13;60.55;98658.45;88444;1278;98963;-74
2022/09/08 03:29:58;;;;;;;17.60;9.90;;;;;;;12.05;60.65;98654.83;88673;1278;25460;-76
2022/09/08 03:32:02;;;;;;;14.90;9.50;;;;;;;12.04;60.55;98657.55;88691;1279;22602;-75
2022/09/08 03:34:06;;;;;;;18.60;9.40;;;;;;;12.01;60.73;98659.35;88690;1276;98921;-75
2022/09/08 03:36:14;;;;;;;22.30;10.00;;;;;;;11.98;60.77;98657.90;88754;1276;22560;-76
2022/09/08 03:38:17;;;;;;;16.50;10.30;;;;;;;11.97;60.78;98652.16;88643;1276;22579;-74
2022/09/08 03:40:19;;;;;;;19.90;10.00;;;;;;;11.97;60.86;98651.33;88570;1276;99658;-73
2022/09/08 03:42:21;;;;;;;23.80;9.90;;;;;;;11.97;60.77;98653.41;88736;1276;22598;-74
2022/09/08 03:44:23;;;;;;;20.20;9.80;;;;;;;11.96;60.78;98659.59;88560;1279;22490;-76
2022/09/08 03:46:25;;;;;;;25.70;10.40;;;;;;;11.95;60.79;98657.02;88792;1276;100292;-76
2022/09/08 03:48:26;;;;;;;23.40;9.70;;;;;;;11.96;60.83;98661.58;88655;1276;22798;-73
2022/09/08 03:50:29;;;;;;;21.70;9.90;;;;;;;11.97;60.84;98656.77;88762;1276;22570;-74
2022/09/08 03:52:37;;;;;;;20.80;10.10;;;;;;;11.98;60.89;98654.58;88650;1278;99137;-74
2022/09/08 03:54:48;;;;;;;19.00;10.10;;;;;;;11.98;60.84;98653.89;88730;1276;24018;-76
2022/09/08 03:56:50;;;;;;;;;;;;;;;11.97;60.88;98653.22;88720;1276;22540;-73
2022/09/08 03:58:52;;;;;;;13.90;9.60;;;;;;;11.94;61.04;98656.39;88602;1275;84147;-76
2022/09/08 04:00:56;;;;;;;21.00;9.70;;;;;;;11.92;61.06;98662.98;88832;1275;22587;-73
2022/09/08 04:02:59;;;;;;;23.70;10.20;;;;;;;11.88;61.01;98667.29;88978;1276;27731;-76
2022/09/08 04:05:01;;;;;;;20.60;10.00;;;;;;;11.88;61.05;98671.50;88820;1275;98777;-75
2022/09/08 04:07:04;;;;;;;12.80;9.00;;;;;;;11.89;61.16;98674.03;88692;1276;22541;-74
2022/09/08 04:09:05;;;;;;;17.10;9.90;;;;;;;11.89;61.35;98678.62;88906;1273;25284;-75
2022/09/08 04:11:11;;;;;;;18.10;9.90;;;;;;;11.86;61.46;98679.85;89101;1274;23075;-74
2022/09/08 04:13:13;;;;;;;21.70;10.70;;;;;;;11.85;61.41;98677.29;88880;1276;22742;-76
2022/09/08 04:15:15;;;;;;;30.50;10.20;;;;;;;11.85;61.49;98671.13;88793;1278;98682;-76
2022/09/08 04:17:19;;;;;;;25.50;10.30;;;;;;;11.87;61.48;98667.48;88826;1280;22577;-75
2022/09/08 04:19:21;;;;;;;24.90;10.40;;;;;;;11.88;61.58;98667.63;88942;1276;22573;-76
2022/09/08 04:21:23;;;;;;;27.70;11.40;;;;;;;11.86;61.47;98666.35;89018;1275;99245;-74
2022/09/08 04:23:26;;;;;;;17.00;10.20;;;;;;;11.83;61.62;98671.26;88571;1276;24108;-76
2022/09/08 04:25:27;;;;;;;22.20;10.40;;;;;;;11.81;61.57;98670.84;88502;1276;25459;-76
2022/09/08 04:27:29;;;;;;;20.50;10.10;;;;;;;11.81;61.57;98668.94;88245;1279;100229;-74
2022/09/08 04:29:31;;;;;;;17.50;10.60;;;;;;;11.80;61.62;98669.15;88460;1276;22833;-75
2022/09/08 04:31:34;;;;;;;25.90;10.30;;;;;;;11.79;61.66;98663.23;88545;1276;22571;-76
2022/09/08 04:33:37;;;;;;;29.20;10.50;;;;;;;11.76;61.79;98668.64;88473;1276;98084;-76
2022/09/08 04:35:38;;;;;;;24.70;10.40;;;;;;;11.76;61.89;98668.81;88335;1279;23021;-75
2022/09/08 04:37:43;;;;;;;24.60;10.40;;;;;;;11.75;61.86;98667.98;88410;1274;25254;-75
2022/09/08 04:39:47;;;;;;;20.60;10.30;;;;;;;11.75;61.93;98669.20;88350;1276;99267;-76
2022/09/08 04:41:49;;;;;;;19.20;9.20;;;;;;;11.76;61.97;98669.89;88553;1276;25461;-79
2022/09/08 04:43:52;;;;;;;28.70;10.50;;;;;;;11.76;61.97;98669.19;88492;1276;25537;-75
2022/09/08 04:45:53;;;;;;;17.00;10.20;;;;;;;11.75;62.12;98667.64;88301;1275;98972;-74
2022/09/08 04:47:55;;;;;;;26.50;10.20;;;;;;;11.74;62.07;98663.29;88309;1273;22572;-75
2022/09/08 04:49:57;;;;;;;21.10;10.10;;;;;;;11.75;62.14;98657.80;88344;1276;22633;-74
2022/09/08 04:51:59;;;;;;;30.90;11.90;;;;;;;11.75;62.26;98653.21;88208;1276;98115;-76
2022/09/08 04:54:02;;;;;;;30.00;11.00;;;;;;;11.76;62.28;98654.73;88439;1275;24368;-75
2022/09/08 04:56:06;;;;;;;31.50;10.50;;;;;;;11.78;62.32;98658.55;88261;1279;22592;-74
2022/09/08 04:58:08;;;;;;;23.90;10.70;;;;;;;11.78;62.33;98653.61;88109;1276;99192;-75
2022/09/08 05:00:12;;;;;;;24.50;10.30;;;;;;;11.79;62.36;98655.63;88340;1276;23458;-76
2022/09/08 05:02:14;;;;;;;17.40;11.10;;;;;;;11.81;62.38;98662.76;88325;1278;24789;-75
2022/09/08 05:04:15;;;;;;;21.80;10.90;;;;;;;11.82;62.34;98662.85;88359;1274;99129;-74
2022/09/08 05:06:17;;;;;;;23.90;11.10;;;;;;;11.84;62.46;98670.48;88290;1279;23053;-75
2022/09/08 05:08:19;;;;;;;26.50;11.10;;;;;;;11.87;62.51;98666.95;88212;1277;22580;-73
2022/09/08 05:10:23;;;;;;;23.20;11.10;;;;;;;11.91;62.51;98666.04;88279;1276;99333;-74
2022/09/08 05:12:27;;;;;;;30.20;11.30;;;;;;;11.93;62.44;98658.85;88541;1274;25787;-77
2022/09/08 05:14:29;;;;;;;37.20;10.90;;;;;;;11.97;62.59;98656.02;88377;1276;22586;-76
2022/09/08 05:16:31;;;;;;;32.30;11.30;;;;;;;12.01;62.49;98656.14;88164;1277;99214;-76
2022/09/08 05:18:34;;;;;;;30.80;10.80;;;;;;;12.05;62.40;98656.77;88328;1276;22807;-76
2022/09/08 05:20:36;;;;;;;31.60;12.50;;;;;;;12.10;62.44;98657.91;88451;1277;22571;-75
2022/09/08 05:22:38;;;;;;;29.00;11.40;;;;;;;12.16;62.37;98660.58;88338;1276;98990;-76
2022/09/08 05:24:40;;;;;;;36.90;10.80;;;;;;;12.20;62.28;98659.40;88190;1278;22563;-75
2022/09/08 05:26:43;;;;;;;33.40;11.20;;;;;;;12.27;62.46;98662.58;88308;1278;22574;-76
2022/09/08 05:28:45;;;;;;;22.70;10.90;;;;;;;12.32;62.36;98661.48;88302;1275;99131;-76
2022/09/08 05:30:47;;;;;;;39.30;12.00;;;;;;;12.38;62.34;98664.16;88316;1276;22525;-76
2022/09/08 05:32:49;;;;;;;26.30;11.10;;;;;;;12.42;62.31;98667.77;88401;1275;22645;-75
2022/09/08 05:34:50;;;;;;;40.30;11.30;;;;;;;12.48;62.36;98666.77;88229;1279;99014;-75
2022/09/08 05:36:52;;;;;;;33.40;12.10;;;;;;;12.53;62.37;98666.05;88331;1276;26002;-76
2022/09/08 05:38:54;;;;;;;28.90;12.50;;;;;;;12.59;62.19;98667.85;88287;1276;25420;-76
2022/09/08 05:40:59;;;;;;;30.00;11.50;;;;;;;12.62;62.21;98668.86;88366;1276;99362;-75
2022/09/08 05:43:00;;;;;;;23.20;11.80;;;;;;;12.65;62.13;98670.45;89122;1277;22555;-75
2022/09/08 05:45:03;;;;;;;43.40;12.50;;;;;;;12.66;62.19;98673.73;88439;1276;22579;-75
2022/09/08 05:47:05;;;;;;;23.40;12.20;;;;;;;12.68;62.09;98672.73;88436;1275;98862;-76
2022/09/08 05:49:06;;;;;;;78.00;15.20;;;;;;;12.70;62.04;98675.05;88429;1274;26021;-76
2022/09/08 05:51:10;;;;;;;68.30;14.50;;;;;;;12.72;62.08;98675.32;88439;1276;22718;-74
2022/09/08 05:53:14;;;;;;;66.40;13.90;;;;;;;12.74;62.13;98673.42;88433;1275;22518;-76
2022/09/08 05:55:17;;;;;;;153.30;18.00;;;;;;;12.79;62.26;98676.63;88504;1274;24313;-75
2022/09/08 05:57:19;;;;;;;111.20;16.90;;;;;;;12.86;62.11;98674.64;88436;1276;99301;-74
2022/09/08 05:59:21;;;;;;;39.70;13.30;;;;;;;12.91;62.40;98673.25;88358;1276;24214;-76
2022/09/08 06:01:23;;;;;;;25.10;12.20;;;;;;;12.98;62.26;98674.21;88342;1276;22551;-75
2022/09/08 06:03:26;;;;;;;23.60;12.40;;;;;;;13.03;62.08;98666.17;88301;1276;100274;-76
2022/09/08 06:05:27;;;;;;;32.40;12.60;;;;;;;13.09;62.08;98669.45;88546;1276;22576;-76
2022/09/08 06:07:31;;;;;;;140.70;19.40;;;;;;;13.16;62.17;98666.91;88303;1279;22714;-75
2022/09/08 06:09:33;;;;;;;210.20;23.50;;;;;;;13.20;62.23;98667.23;88460;1276;100728;-75
2022/09/08 06:11:35;;;;;;;59.40;14.10;;;;;;;13.22;62.29;98663.68;88402;1275;22569;-76
2022/09/08 06:13:37;;;;;;;29.40;12.80;;;;;;;13.27;62.28;98656.89;88326;1277;23989;-75
2022/09/08 06:15:39;;;;;;;24.60;12.80;;;;;;;13.30;62.29;98658.44;88389;1274;98157;-76
2022/09/08 06:17:42;;;;;;;41.10;14.10;;;;;;;13.32;62.16;98654.83;88398;1274;22693;-76
2022/09/08 06:19:43;;;;;;;35.20;13.00;;;;;;;13.38;62.45;98652.67;88419;1274;25537;-76
2022/09/08 06:21:45;;;;;;;33.00;13.50;;;;;;;13.42;62.43;98652.77;88486;1276;98952;-76
2022/09/08 06:23:49;;;;;;;37.90;13.20;;;;;;;13.46;62.48;98651.79;88382;1276;23294;-76
2022/09/08 06:25:51;;;;;;;21.30;13.20;;;;;;;13.52;62.40;98654.23;89027;1275;24950;-76
2022/09/08 06:28:12;;;;;;;32.00;13.60;;;;;;;13.57;62.35;98653.21;88411;1276;99043;-75
2022/09/08 06:30:18;;;;;;;51.90;14.10;;;;;;;13.64;62.40;98646.20;88580;1273;22571;-76
2022/09/08 06:32:43;;;;;;;23.80;13.40;;;;;;;13.72;62.34;98633.66;88357;1278;23484;-76
2022/09/08 06:34:51;;;;;;;25.60;13.30;;;;;;;13.80;62.42;98630.69;88316;1273;99492;-77
2022/09/08 06:37:21;;;;;;;24.30;13.00;;;;;;;13.85;62.24;98630.18;88372;1278;22618;-76
2022/09/08 06:39:27;;;;;;;21.40;12.80;;;;;;;13.94;62.45;98628.50;88496;1274;99771;-76
2022/09/08 06:41:52;;;;;;;24.80;12.90;;;;;;;14.05;62.37;98631.29;88580;1276;22761;-76
2022/09/08 06:44:11;;;;;;;24.90;13.40;;;;;;;14.19;62.35;98631.42;88023;1283;24243;-76
2022/09/08 06:46:25;;;;;;;40.90;13.10;;;;;;;14.29;62.32;98627.21;88930;1282;99464;-76
2022/09/08 06:48:35;;;;;;;27.70;13.50;;;;;;;14.39;62.38;98625.98;88123;1282;23408;-78
2022/09/08 06:51:01;;;;;;;28.80;13.90;;;;;;;14.46;62.19;98625.98;87941;1284;22577;-76
2022/09/08 06:53:09;;;;;;;32.90;13.10;;;;;;;14.55;62.16;98625.19;88056;1284;99720;-77
2022/09/08 06:55:36;;;;;;;33.10;14.60;;;;;;;14.62;62.02;98630.55;87856;1283;25576;-77
2022/09/08 06:58:15;;;;;;;28.60;13.20;;;;;;;14.70;62.10;98633.77;87245;1288;99485;-76
2022/09/08 07:00:29;;;;;;;37.40;13.50;;;;;;;14.85;62.26;98638.52;87342;1288;22593;-77
2022/09/08 07:02:42;;;;;;;30.60;13.40;;;;;;;14.97;62.16;98633.76;87346;1291;22810;-75
2022/09/08 07:05:16;;;;;;;88.80;17.50;;;;;;;15.08;62.16;98629.77;87493;1287;99625;-74
2022/09/08 07:07:33;;;;;;;90.80;17.80;;;;;;;15.19;62.14;98622.68;87475;1287;22589;-78
2022/09/08 07:10:15;;;;;;;32.30;13.50;;;;;;;15.30;62.17;98626.98;87997;1288;22905;-78
2022/09/08 07:12:56;;;;;;;30.30;15.00;;;;;;;15.48;62.14;98623.53;87548;1288;24248;-78
2022/09/08 07:15:15;;;;;;;33.60;14.60;;;;;;;15.58;62.10;98624.02;87670;1287;23550;-78
2022/09/08 07:17:40;;;;;;;35.50;14.60;;;;;;;15.73;62.16;98621.70;87868;1285;98907;-77
2022/09/08 07:19:48;;;;;;;26.20;13.50;;;;;;;15.86;62.07;98617.71;87744;1287;22606;-78
2022/09/08 07:21:56;;;;;;;31.90;14.30;;;;;;;15.98;62.11;98616.45;87980;1281;99365;-79
2022/09/08 07:23:59;;;;;;;26.10;12.80;;;;;;;16.09;62.14;98609.95;88702;1284;23108;-80
2022/09/08 07:26:08;;;;;;;31.70;14.30;;;;;;;16.23;62.11;98606.75;87919;1284;22544;-80
2022/09/08 07:28:15;;;;;;;29.90;15.20;;;;;;;16.31;61.81;98604.69;88072;1285;99364;-79
2022/09/08 07:30:18;;;;;;;35.20;14.10;;;;;;;16.40;61.88;98603.13;88673;1282;22737;-79
2022/09/08 07:32:29;;;;;;;21.30;12.90;;;;;;;16.49;62.01;98604.14;87905;1284;22597;-78
2022/09/08 07:34:40;;;;;;;33.00;13.10;;;;;;;16.61;62.06;98606.42;88286;1281;100194;-80
2022/09/08 07:37:04;;;;;;;25.50;13.20;;;;;;;16.75;61.93;98602.83;88487;1279;22567;-79
2022/09/08 07:39:21;;;;;;;34.80;13.90;;;;;;;16.88;61.78;98602.40;88579;1275;22549;-79
2022/09/08 07:41:33;;;;;;;38.00;14.10;;;;;;;16.99;61.72;98602.95;88770;1276;22631;-79
2022/09/08 07:43:35;;;;;;;40.70;13.30;;;;;;;17.08;61.62;98604.28;89295;1276;22591;-80
2022/09/08 07:45:40;;;;;;;29.70;13.80;;;;;;;17.20;61.75;98610.98;88621;1276;99373;-81
2022/09/08 07:47:57;;;;;;;32.80;13.90;;;;;;;17.29;61.48;98606.70;89206;1275;22558;-80
2022/09/08 07:50:05;;;;;;;31.70;14.20;;;;;;;17.36;61.55;98600.48;88676;1275;22557;-79
2022/09/08 07:52:29;;;;;;;26.40;14.20;;;;;;;17.43;61.48;98595.94;88613;1274;98953;-80
2022/09/08 07:54:48;;;;;;;56.60;14.30;;;;;;;17.57;61.62;98594.63;88717;1274;24482;-81
2022/09/08 07:57:03;;;;;;;43.60;14.10;;;;;;;17.69;61.46;98593.46;88537;1276;25595;-79
2022/09/08 07:59:29;;;;;;;39.30;14.20;;;;;;;17.83;61.58;98595.97;88804;1274;99903;-80
2022/09/08 08:01:40;;;;;;;27.80;13.40;;;;;;;17.98;61.46;98596.97;88918;1275;22607;-80
2022/09/08 08:03:48;;;;;;;35.40;12.80;;;;;;;18.12;61.40;98601.98;89150;1274;98026;-80
2022/09/08 08:06:22;;;;;;;25.40;12.50;;;;;;;18.26;61.11;98595.48;88743;1276;22723;-80
2022/09/08 08:08:54;;;;;;;36.60;13.50;;;;;;;18.39;61.33;98593.95;89176;1276;22661;-81
2022/09/08 08:11:09;;;;;;;39.10;13.10;;;;;;;18.55;61.40;98595.76;88617;1276;99199;-80
2022/09/08 08:13:58;;;;;;;29.00;13.50;;;;;;;18.65;61.06;98587.61;89184;1275;22543;-80
2022/09/08 08:16:16;;;;;;;40.30;13.50;;;;;;;18.76;60.90;98589.00;88841;1282;99382;-80
2022/09/08 08:19:06;;;;;;;25.20;12.80;;;;;;;18.85;60.99;98584.58;88824;1282;22591;-80
2022/09/08 08:21:15;;;;;;;27.70;12.80;;;;;;;19.01;60.94;98588.76;88516;1285;25292;-80
2022/09/08 08:23:52;;;;;;;25.60;12.90;;;;;;;19.13;60.79;98580.08;88243;1287;99101;-79
2022/09/08 08:26:11;;;;;;;30.80;13.00;;;;;;;19.33;60.78;98578.43;88301;1287;22721;-79
2022/09/08 08:28:18;;;;;;;26.60;12.80;;;;;;;19.46;60.65;98573.14;88592;1285;99519;-81
2022/09/08 08:30:22;;;;;;;26.40;12.50;;;;;;;19.63;60.86;98566.25;88350;1287;22566;-80
2022/09/08 08:32:29;;;;;;;30.50;12.70;;;;;;;19.78;60.51;98561.98;88519;1287;22711;-80
2022/09/08 08:34:46;;;;;;;35.40;12.50;;;;;;;19.91;60.31;98559.34;88183;1285;99335;-80
2022/09/08 08:36:50;;;;;;;25.60;13.00;;;;;;;20.05;60.34;98560.09;88570;1285;25862;-79
2022/09/08 08:39:12;;;;;;;31.10;12.40;;;;;;;20.24;60.61;98562.58;88346;1287;22606;-81
2022/09/08 08:41:48;;;;;;;50.00;13.80;;;;;;;20.47;60.30;98557.13;88435;1287;22940;-81
2022/09/08 08:44:14;;;;;;;24.10;12.30;;;;;;;20.63;60.22;98558.11;88417;1284;24127;-80
2022/09/08 08:46:38;;;;;;;31.50;13.00;;;;;;;20.76;59.74;98550.46;88290;1285;99243;-81
2022/09/08 08:49:21;;;;;;;20.00;12.60;;;;;;;20.80;59.67;98541.67;89304;1279;24241;-80
2022/09/08 08:52:00;;;;;;;18.90;11.60;;;;;;;20.98;60.02;98542.42;88691;1284;22576;-79
2022/09/08 08:54:36;;;;;;;31.30;11.70;;;;;;;21.21;59.82;98535.35;88897;1281;22710;-80
2022/09/08 08:57:36;;;;;;;22.70;10.90;;;;;;;21.32;59.46;98522.48;88962;1281;22684;-79
2022/09/08 09:00:00;;;;;;;31.30;11.70;;;;;;;21.42;59.45;98524.85;88383;1287;22635;-81
2022/09/08 09:02:31;;;;;;;18.80;10.80;;;;;;;21.46;59.10;98525.87;88410;1287;22596;-80
2022/09/08 09:05:03;;;;;;;21.90;10.30;;;;;;;21.52;59.08;98523.52;88065;1287;99265;-80
2022/09/08 09:07:19;;;;;;;35.40;15.00;;;;;;;21.59;59.27;98526.91;87874;1294;23582;-81
2022/09/08 09:10:00;;;;;;;54.40;28.80;;;;;;;21.75;59.15;98528.40;87496;1293;99142;-79
2022/09/08 09:12:18;;;;;;;23.60;13.00;;;;;;;21.92;59.05;98525.73;87802;1294;24350;-80
2022/09/08 09:15:06;;;;;;;20.10;10.30;;;;;;;22.02;58.78;98525.48;88088;1294;22977;-81
2022/09/08 09:17:36;;;;;;;24.50;10.20;;;;;;;22.03;58.67;98522.70;87620;1300;98244;-80
2022/09/08 09:19:58;;;;;;;30.00;10.00;;;;;;;22.09;58.55;98522.20;87699;1302;22583;-83
2022/09/08 09:22:21;;;;;;;30.40;9.00;;;;;;;22.15;58.62;98520.58;87712;1302;98309;-80
2022/09/08 09:24:58;;;;;;;31.80;9.70;;;;;;;22.23;58.55;98517.92;87748;1300;22537;-81
2022/09/08 09:27:42;;;;;;;29.90;10.50;;;;;;;22.35;58.46;98517.57;87665;1300;22629;-80
2022/09/08 09:29:57;;;;;;;41.80;10.30;;;;;;;22.41;58.30;98517.10;88178;1296;23489;-81
2022/09/08 09:32:21;;;;;;;37.20;10.50;;;;;;;22.43;58.06;98514.38;88075;1296;22875;-80
2022/09/08 09:35:13;;;;;;;53.10;10.40;;;;;;;22.50;58.32;98508.14;88006;1294;99084;-80
2022/09/08 09:37:52;;;;;;;41.00;9.90;;;;;;;22.63;58.08;98507.16;88250;1288;22709;-79
2022/09/08 09:40:13;;;;;;;20.80;10.30;;;;;;;22.76;58.26;98507.92;88109;1289;98571;-80
2022/09/08 09:42:17;;;;;;;34.10;10.40;;;;;;;22.92;58.00;98506.31;88254;1287;22579;-79
2022/09/08 09:45:04;;;;;;;23.60;10.00;;;;;;;22.99;57.77;98507.67;88564;1281;23079;-79
2022/09/08 09:47:40;;;;;;;22.80;10.00;;;;;;;23.06;57.74;98505.09;87730;1290;99495;-80
2022/09/08 09:50:21;;;;;;;16.40;10.40;;;;;;;23.22;57.78;98496.91;88103;1288;22593;-80
2022/09/08 09:52:34;;;;;;;27.60;9.10;;;;;;;23.35;57.25;98493.79;87977;1288;99006;-80
2022/09/08 09:55:15;;;;;;;14.50;9.20;;;;;;;23.37;57.27;98491.70;88325;1283;22775;-80
2022/09/08 09:57:51;;;;;;;31.80;9.50;;;;;;;23.53;57.52;98490.16;87524;1293;23035;-80
2022/09/08 10:00:14;;;;;;;33.10;9.30;;;;;;;23.78;57.30;98491.03;88128;1290;22805;-81
2022/09/08 10:02:40;;;;;;;26.60;9.30;;;;;;;23.98;57.08;98493.48;88221;1288;22575;-80
2022/09/08 10:05:18;;;;;;;19.60;8.90;;;;;;;24.14;57.02;98492.90;87786;1288;98168;-80
2022/09/08 10:07:23;;;;;;;34.50;9.30;;;;;;;24.19;56.33;98487.36;87971;1289;25283;-77